LHA1113 EDDN-EDDM
Flight info
| Callsign | LHA1113 |
|---|---|
| Flight time | 0h 32m |
| Altitude | 16000 |
| Route | BOLS1C BOLSI Y167 AKANU/N0291F150 L603 RENLO T466 ROKIL ROKI1B |
| Aircraft | DH8D/M-SDE1E2FGIJ1RWYZ/S |
Departure
| Time | 2026-05-04 06:05 |
|---|---|
| Airport | Nuremberg Airport (EDDN) |
Arrival
| Time | 2026-05-04 06:37 |
|---|---|
| Airport | Munich Airport (EDDM) |
| Time | Latitude | Longitude | Altitude | Speed | Heading |
|---|---|---|---|---|---|
| 2026-05-04 05:39 | 49.49499 | 11.08044 | 1053 ft | 0 kts | 188° |
| 2026-05-04 05:54 | 49.49503 | 11.08045 | 1052 ft | 2 kts | 188° |
| 2026-05-04 05:55 | 49.49517 | 11.08048 | 1052 ft | 2 kts | 188° |
| 2026-05-04 05:55 | 49.49532 | 11.08052 | 1052 ft | 2 kts | 188° |
| 2026-05-04 05:55 | 49.49547 | 11.08056 | 1052 ft | 2 kts | 212° |
| 2026-05-04 05:55 | 49.49555 | 11.08074 | 1052 ft | 2 kts | 261° |
| 2026-05-04 05:56 | 49.49554 | 11.08087 | 1052 ft | 0 kts | 279° |
| 2026-05-04 05:59 | 49.49558 | 11.08055 | 1052 ft | 5 kts | 279° |
| 2026-05-04 05:59 | 49.49566 | 11.07972 | 1052 ft | 9 kts | 278° |
| 2026-05-04 05:59 | 49.49577 | 11.07851 | 1052 ft | 13 kts | 276° |
| 2026-05-04 05:59 | 49.49643 | 11.07773 | 1052 ft | 15 kts | 354° |
| 2026-05-04 06:00 | 49.49692 | 11.07638 | 1052 ft | 16 kts | 279° |
| 2026-05-04 06:00 | 49.49710 | 11.07453 | 1052 ft | 18 kts | 279° |
| 2026-05-04 06:00 | 49.49730 | 11.07253 | 1052 ft | 19 kts | 278° |
| 2026-05-04 06:00 | 49.49751 | 11.07045 | 1052 ft | 20 kts | 279° |
| 2026-05-04 06:01 | 49.49773 | 11.06828 | 1052 ft | 20 kts | 278° |
| 2026-05-04 06:01 | 49.49795 | 11.06607 | 1052 ft | 21 kts | 278° |
| 2026-05-04 06:03 | 49.50046 | 11.06022 | 1052 ft | 0 kts | 95° |
| 2026-05-04 06:03 | 49.50040 | 11.06095 | 1053 ft | 38 kts | 98° |
| 2026-05-04 06:05 | 49.48837 | 11.17607 | 4047 ft | 191 kts | 99° |
| 2026-05-04 06:05 | 49.48436 | 11.21669 | 5219 ft | 196 kts | 99° |
| 2026-05-04 06:05 | 49.48095 | 11.23662 | 5771 ft | 196 kts | 124° |
| 2026-05-04 06:06 | 49.47031 | 11.24773 | 6230 ft | 190 kts | 175° |
| 2026-05-04 06:06 | 49.45726 | 11.24754 | 6806 ft | 188 kts | 186° |
| 2026-05-04 06:06 | 49.44406 | 11.24634 | 7407 ft | 190 kts | 186° |
| 2026-05-04 06:06 | 49.43102 | 11.24505 | 8000 ft | 191 kts | 187° |
| 2026-05-04 06:07 | 49.41787 | 11.24367 | 8596 ft | 192 kts | 187° |
| 2026-05-04 06:07 | 49.40453 | 11.24224 | 9189 ft | 193 kts | 187° |
| 2026-05-04 06:07 | 49.39117 | 11.24077 | 9785 ft | 195 kts | 188° |
| 2026-05-04 06:07 | 49.37765 | 11.23926 | 10396 ft | 196 kts | 188° |
| 2026-05-04 06:08 | 49.36376 | 11.23764 | 10702 ft | 215 kts | 188° |
| 2026-05-04 06:08 | 49.34795 | 11.23579 | 10932 ft | 234 kts | 187° |
| 2026-05-04 06:08 | 49.33164 | 11.23390 | 11445 ft | 239 kts | 189° |
| 2026-05-04 06:08 | 49.31620 | 11.22583 | 11940 ft | 236 kts | 220° |
| 2026-05-04 06:09 | 49.30753 | 11.20537 | 12404 ft | 236 kts | 251° |
| 2026-05-04 06:09 | 49.30307 | 11.18093 | 12916 ft | 239 kts | 255° |
| 2026-05-04 06:11 | 49.27367 | 11.00560 | 16239 ft | 251 kts | 254° |
| 2026-05-04 06:11 | 49.26931 | 10.97949 | 16673 ft | 253 kts | 254° |
| 2026-05-04 06:13 | 49.23790 | 10.79213 | 19014 ft | 278 kts | 254° |
| 2026-05-04 06:14 | 49.13942 | 10.70600 | 19030 ft | 288 kts | 201° |
| 2026-05-04 06:14 | 49.12055 | 10.69571 | 19029 ft | 289 kts | 201° |
| 2026-05-04 06:15 | 49.10155 | 10.68530 | 19029 ft | 289 kts | 201° |
| 2026-05-04 06:15 | 49.08270 | 10.67496 | 19030 ft | 290 kts | 201° |
| 2026-05-04 06:15 | 49.06325 | 10.66700 | 19005 ft | 293 kts | 186° |
| 2026-05-04 06:15 | 49.04340 | 10.67341 | 19021 ft | 298 kts | 156° |
| 2026-05-04 06:16 | 49.02698 | 10.69284 | 19043 ft | 302 kts | 141° |
| 2026-05-04 06:16 | 49.01187 | 10.71474 | 19033 ft | 303 kts | 140° |
| 2026-05-04 06:16 | 48.99657 | 10.73719 | 19030 ft | 304 kts | 140° |
| 2026-05-04 06:16 | 48.98148 | 10.75936 | 19032 ft | 305 kts | 140° |
| 2026-05-04 06:17 | 48.96617 | 10.78185 | 19034 ft | 305 kts | 139° |
| 2026-05-04 06:17 | 48.95084 | 10.80434 | 19034 ft | 305 kts | 139° |
| 2026-05-04 06:17 | 48.93567 | 10.82657 | 19035 ft | 306 kts | 139° |
| 2026-05-04 06:17 | 48.92078 | 10.84836 | 19033 ft | 306 kts | 139° |
| 2026-05-04 06:18 | 48.90548 | 10.87077 | 19034 ft | 306 kts | 139° |
| 2026-05-04 06:18 | 48.88992 | 10.89358 | 19032 ft | 306 kts | 139° |
| 2026-05-04 06:18 | 48.87460 | 10.91602 | 19032 ft | 306 kts | 139° |
| 2026-05-04 06:20 | 48.76411 | 11.06789 | 18606 ft | 313 kts | 161° |
| 2026-05-04 06:20 | 48.74326 | 11.07902 | 18172 ft | 324 kts | 164° |
| 2026-05-04 06:21 | 48.65335 | 11.12466 | 16165 ft | 355 kts | 163° |
| 2026-05-04 06:21 | 48.62967 | 11.13676 | 15631 ft | 356 kts | 163° |
| 2026-05-04 06:22 | 48.60709 | 11.14841 | 15100 ft | 341 kts | 163° |
| 2026-05-04 06:22 | 48.58515 | 11.15979 | 14604 ft | 326 kts | 164° |
| 2026-05-04 06:25 | 48.55714 | 11.50375 | 9183 ft | 280 kts | 79° |
| 2026-05-04 06:25 | 48.56112 | 11.53250 | 8927 ft | 278 kts | 79° |
| 2026-05-04 06:26 | 48.56509 | 11.56106 | 8680 ft | 277 kts | 79° |
| 2026-05-04 06:26 | 48.56858 | 11.58926 | 8427 ft | 275 kts | 85° |
| 2026-05-04 06:26 | 48.56591 | 11.61715 | 8250 ft | 269 kts | 108° |
| 2026-05-04 06:26 | 48.55982 | 11.64389 | 8120 ft | 268 kts | 110° |
| 2026-05-04 06:27 | 48.53527 | 11.74951 | 7617 ft | 267 kts | 110° |
| 2026-05-04 06:28 | 48.52919 | 11.77583 | 7492 ft | 266 kts | 110° |
| 2026-05-04 06:28 | 48.52315 | 11.80197 | 7370 ft | 265 kts | 109° |
| 2026-05-04 06:28 | 48.51707 | 11.82823 | 7241 ft | 264 kts | 109° |
| 2026-05-04 06:28 | 48.51099 | 11.85443 | 7115 ft | 263 kts | 109° |
| 2026-05-04 06:29 | 48.50496 | 11.88038 | 6990 ft | 262 kts | 109° |
| 2026-05-04 06:29 | 48.49906 | 11.90583 | 6866 ft | 260 kts | 109° |
| 2026-05-04 06:29 | 48.49310 | 11.93154 | 6741 ft | 259 kts | 109° |
| 2026-05-04 06:29 | 48.48719 | 11.95706 | 6612 ft | 258 kts | 109° |
| 2026-05-04 06:30 | 48.48122 | 11.98274 | 6483 ft | 258 kts | 109° |
| 2026-05-04 06:30 | 48.47537 | 12.00790 | 6377 ft | 256 kts | 108° |
| 2026-05-04 06:30 | 48.46947 | 12.03325 | 6210 ft | 253 kts | 108° |
| 2026-05-04 06:30 | 48.46374 | 12.05787 | 6024 ft | 249 kts | 108° |
| 2026-05-04 06:31 | 48.45799 | 12.08255 | 5829 ft | 247 kts | 108° |
| 2026-05-04 06:31 | 48.45233 | 12.10680 | 5633 ft | 245 kts | 108° |
| 2026-05-04 06:31 | 48.44681 | 12.13044 | 5433 ft | 238 kts | 108° |
| 2026-05-04 06:31 | 48.44122 | 12.15329 | 5274 ft | 227 kts | 114° |
| 2026-05-04 06:32 | 48.43102 | 12.17101 | 5292 ft | 224 kts | 148° |
| 2026-05-04 06:33 | 48.38496 | 12.06180 | 4570 ft | 220 kts | 265° |
| 2026-05-04 06:34 | 48.38322 | 12.03885 | 4273 ft | 220 kts | 265° |
| 2026-05-04 06:34 | 48.38154 | 12.01614 | 3980 ft | 219 kts | 265° |
| 2026-05-04 06:34 | 48.37986 | 11.99370 | 3691 ft | 215 kts | 265° |
| 2026-05-04 06:34 | 48.37819 | 11.97190 | 3454 ft | 205 kts | 266° |
| 2026-05-04 06:35 | 48.37664 | 11.95113 | 3158 ft | 199 kts | 266° |
| 2026-05-04 06:36 | 48.36801 | 11.83567 | 1699 ft | 151 kts | 263° |
| 2026-05-04 06:37 | 48.36680 | 11.82030 | 1501 ft | 143 kts | 264° |
| 2026-05-04 06:37 | 48.36579 | 11.80639 | 1461 ft | 109 kts | 264° |
| 2026-05-04 06:37 | 48.36508 | 11.79748 | 1466 ft | 67 kts | 264° |
| 2026-05-04 06:37 | 48.36462 | 11.79167 | 1469 ft | 47 kts | 259° |
| 2026-05-04 06:38 | 48.36362 | 11.78826 | 1472 ft | 23 kts | 233° |
| 2026-05-04 06:38 | 48.36278 | 11.78661 | 1473 ft | 17 kts | 233° |
| 2026-05-04 06:40 | 48.35925 | 11.77682 | 1477 ft | 12 kts | 174° |
| 2026-05-04 06:40 | 48.35836 | 11.77698 | 1477 ft | 13 kts | 173° |
| 2026-05-04 06:40 | 48.35743 | 11.77715 | 1478 ft | 13 kts | 173° |
| 2026-05-04 06:40 | 48.35655 | 11.77731 | 1479 ft | 3 kts | 174° |
| 2026-05-04 06:41 | 48.35626 | 11.77720 | 1479 ft | 6 kts | 218° |
| 2026-05-04 06:41 | 48.35610 | 11.77650 | 1479 ft | 5 kts | 263° |
| 2026-05-04 06:41 | 48.35609 | 11.77638 | 1479 ft | 0 kts | 263° |